createdAt,value
2019-05-29T00:00:18.455Z,25.50
2019-05-29T00:02:55.294Z,25.40
2019-05-29T00:05:31.866Z,25.40
2019-05-29T00:08:08.483Z,25.40
2019-05-29T00:10:45.296Z,25.40
2019-05-29T00:13:21.732Z,25.40
2019-05-29T00:15:58.945Z,25.40
2019-05-29T00:18:35.444Z,25.40
2019-05-29T00:21:13.058Z,25.50
2019-05-29T00:23:49.680Z,25.60
2019-05-29T00:26:26.309Z,25.60
2019-05-29T00:29:03.634Z,25.70
2019-05-29T00:31:40.111Z,25.70
2019-05-29T00:34:17.271Z,25.70
2019-05-29T00:36:53.968Z,25.80
2019-05-29T00:39:30.455Z,25.80
2019-05-29T00:42:06.943Z,25.90
2019-05-29T00:44:43.768Z,25.90
2019-05-29T00:47:20.399Z,25.90
2019-05-29T00:49:57.202Z,25.90
2019-05-29T00:52:34.433Z,26.00
2019-05-29T00:55:11.161Z,25.90
2019-05-29T00:57:47.570Z,25.90
2019-05-29T01:00:24.323Z,26.10
2019-05-29T01:03:01.448Z,26.20
2019-05-29T01:05:38.230Z,26.20
2019-05-29T01:08:14.520Z,26.20
2019-05-29T01:10:51.154Z,26.20
2019-05-29T01:13:27.669Z,26.30
2019-05-29T01:16:05.623Z,26.30
2019-05-29T01:18:42.226Z,26.40
2019-05-29T01:21:20.075Z,26.60
2019-05-29T01:23:56.607Z,26.60
2019-05-29T01:26:33.159Z,26.40
2019-05-29T01:29:09.795Z,26.80
2019-05-29T01:31:46.488Z,26.80
2019-05-29T01:34:23.887Z,26.80
2019-05-29T01:37:00.653Z,26.90
2019-05-29T01:39:37.195Z,26.80
2019-05-29T01:42:15.157Z,26.70
2019-05-29T01:45:06.326Z,26.90
2019-05-29T01:47:29.589Z,27.10
2019-05-29T01:50:05.994Z,27.20
2019-05-29T01:52:42.829Z,27.20
2019-05-29T01:55:19.778Z,27.30
2019-05-29T01:57:56.499Z,27.30
2019-05-29T02:00:33.803Z,27.40
2019-05-29T02:03:10.481Z,27.50
2019-05-29T02:05:46.764Z,27.40
2019-05-29T02:08:24.263Z,27.30
2019-05-29T02:11:01.109Z,27.40
2019-05-29T02:13:37.570Z,27.60
2019-05-29T02:16:14.051Z,27.90
2019-05-29T02:18:50.606Z,27.90
2019-05-29T02:21:28.366Z,28.00
2019-05-29T02:24:05.144Z,28.10
2019-05-29T02:26:42.539Z,28.20
2019-05-29T02:29:18.833Z,28.20
2019-05-29T02:31:55.548Z,28.20
2019-05-29T02:34:32.469Z,28.10
2019-05-29T02:37:09.514Z,28.20
2019-05-29T02:39:45.727Z,28.30
2019-05-29T02:42:22.725Z,28.70
2019-05-29T02:44:59.284Z,29.00
2019-05-29T02:47:35.871Z,29.10
2019-05-29T02:50:12.743Z,29.10
2019-05-29T02:52:49.369Z,29.30
2019-05-29T02:55:26.899Z,29.10
2019-05-29T02:58:04.141Z,29.50
2019-05-29T03:00:58.220Z,29.30
2019-05-29T03:03:39.412Z,29.40
2019-05-29T03:06:13.102Z,29.10
2019-05-29T03:08:50.023Z,29.40
2019-05-29T03:11:27.091Z,29.30
2019-05-29T03:14:04.035Z,29.30
2019-05-29T03:16:40.756Z,29.20
2019-05-29T03:19:17.564Z,29.60
2019-05-29T03:21:54.668Z,29.40
2019-05-29T03:24:32.734Z,29.60
2019-05-29T03:27:08.809Z,29.60
2019-05-29T03:29:45.381Z,29.80
2019-05-29T03:32:22.073Z,29.60
2019-05-29T03:34:58.704Z,30.00
2019-05-29T03:37:35.550Z,30.60
2019-05-29T03:40:12.334Z,30.10
2019-05-29T03:42:48.899Z,29.70
2019-05-29T03:45:26.651Z,29.90
2019-05-29T03:48:02.698Z,29.70
2019-05-29T03:50:40.451Z,29.60
2019-05-29T03:53:17.325Z,29.50
2019-05-29T03:55:53.671Z,29.70
2019-05-29T03:58:30.972Z,30.50
2019-05-29T04:01:07.846Z,30.60
2019-05-29T04:03:44.723Z,30.90
2019-05-29T04:06:21.330Z,30.80
2019-05-29T04:08:57.981Z,30.80
2019-05-29T04:11:35.545Z,30.90
2019-05-29T04:14:12.110Z,31.40
2019-05-29T04:16:59.116Z,31.50
2019-05-29T04:19:27.942Z,31.50
2019-05-29T04:22:09.448Z,31.20
2019-05-29T04:24:46.162Z,31.30
2019-05-29T04:27:25.033Z,31.30
2019-05-29T04:30:03.940Z,31.40
2019-05-29T04:32:40.398Z,31.00
2019-05-29T04:35:16.848Z,30.90
2019-05-29T04:37:53.413Z,30.50
2019-05-29T04:40:30.568Z,30.30
2019-05-29T04:43:06.962Z,30.50
2019-05-29T04:45:43.375Z,30.70
2019-05-29T04:48:19.779Z,30.50
2019-05-29T04:50:56.354Z,30.50
2019-05-29T04:53:33.483Z,30.60
2019-05-29T04:56:10.727Z,30.90
2019-05-29T04:58:47.372Z,30.80
2019-05-29T05:01:23.968Z,31.30
2019-05-29T05:04:01.612Z,31.50
2019-05-29T05:06:38.104Z,31.40
2019-05-29T05:09:14.700Z,31.70
2019-05-29T05:11:50.805Z,31.90
2019-05-29T05:14:27.248Z,31.80
2019-05-29T05:17:03.891Z,32.00
2019-05-29T05:19:40.446Z,32.20
2019-05-29T05:22:17.212Z,31.90
2019-05-29T05:24:53.648Z,31.60
2019-05-29T05:27:30.171Z,31.20
2019-05-29T05:30:08.901Z,31.10
2019-05-29T05:32:44.804Z,31.10
2019-05-29T05:35:21.425Z,31.60
2019-05-29T05:37:58.056Z,31.90
2019-05-29T05:40:37.131Z,31.60
2019-05-29T05:43:23.718Z,31.30
2019-05-29T05:45:50.643Z,31.20
2019-05-29T05:48:26.863Z,30.90
2019-05-29T05:51:03.689Z,31.10
2019-05-29T05:53:41.556Z,31.10
2019-05-29T05:56:18.177Z,31.50
2019-05-29T05:58:55.069Z,31.40
2019-05-29T06:01:31.958Z,30.80
2019-05-29T06:04:08.309Z,30.60
2019-05-29T06:06:44.934Z,30.50
2019-05-29T06:09:21.047Z,30.70
2019-05-29T06:12:00.564Z,30.70
2019-05-29T06:14:38.483Z,31.10
2019-05-29T06:17:15.642Z,31.70
2019-05-29T06:19:52.198Z,32.00
2019-05-29T06:22:28.792Z,32.00
2019-05-29T06:25:04.824Z,31.70
2019-05-29T06:27:41.456Z,31.90
2019-05-29T06:30:18.487Z,31.80
2019-05-29T06:32:55.385Z,31.30
2019-05-29T06:35:34.005Z,31.10
2019-05-29T06:38:10.173Z,31.00
2019-05-29T06:40:47.204Z,30.90
2019-05-29T06:43:28.299Z,30.90
2019-05-29T06:46:05.121Z,30.80
2019-05-29T06:48:53.453Z,30.40
2019-05-29T06:51:19.716Z,30.40
2019-05-29T06:53:56.547Z,30.50
2019-05-29T06:56:33.131Z,30.50
2019-05-29T06:59:09.953Z,30.60
2019-05-29T07:01:47.586Z,30.70
2019-05-29T07:04:24.230Z,31.00
2019-05-29T07:07:00.453Z,31.20
2019-05-29T07:09:37.224Z,31.50
2019-05-29T07:12:15.170Z,31.80
2019-05-29T07:14:51.633Z,32.20
2019-05-29T07:17:28.376Z,32.20
2019-05-29T07:20:05.262Z,31.70
2019-05-29T07:22:43.044Z,31.20
2019-05-29T07:25:20.902Z,31.10
2019-05-29T07:27:57.881Z,30.80
2019-05-29T07:30:37.242Z,30.50
2019-05-29T07:33:13.976Z,30.60
2019-05-29T07:35:50.626Z,30.60
2019-05-29T07:38:27.322Z,30.80
2019-05-29T07:41:04.075Z,30.90
2019-05-29T07:43:41.802Z,31.50
2019-05-29T07:46:18.522Z,32.00
2019-05-29T07:48:54.749Z,32.60
2019-05-29T07:51:31.936Z,32.80
2019-05-29T07:54:08.510Z,32.60
2019-05-29T07:56:45.188Z,32.50
2019-05-29T07:59:21.974Z,32.80
2019-05-29T08:01:59.078Z,33.00
2019-05-29T08:04:35.437Z,32.70
2019-05-29T08:07:12.110Z,32.70
2019-05-29T08:09:49.831Z,32.90
2019-05-29T08:12:26.226Z,32.40
2019-05-29T08:15:03.003Z,32.80
2019-05-29T08:17:42.068Z,32.80
2019-05-29T08:20:19.038Z,32.50
2019-05-29T08:22:55.787Z,32.50
2019-05-29T08:25:31.914Z,32.50
2019-05-29T08:28:08.184Z,31.90
2019-05-29T08:30:48.393Z,31.90
2019-05-29T08:33:22.352Z,31.90
2019-05-29T08:36:00.312Z,31.70
2019-05-29T08:38:36.609Z,31.60
2019-05-29T08:41:13.092Z,31.60
2019-05-29T08:43:50.609Z,31.30
2019-05-29T08:46:26.951Z,31.10
2019-05-29T08:49:03.063Z,31.20
2019-05-29T08:51:39.257Z,31.20
2019-05-29T08:54:24.080Z,31.30
2019-05-29T08:56:53.330Z,31.10
2019-05-29T08:59:29.823Z,31.20
2019-05-29T09:02:06.285Z,31.20
2019-05-29T09:04:43.090Z,31.30
2019-05-29T09:07:19.654Z,31.30
2019-05-29T09:09:56.294Z,31.40
2019-05-29T09:12:32.859Z,31.30
2019-05-29T09:15:10.082Z,31.30
2019-05-29T09:17:46.871Z,31.30
2019-05-29T09:20:41.906Z,31.30
2019-05-29T09:23:00.874Z,31.20
2019-05-29T09:25:37.363Z,31.30
2019-05-29T09:28:19.115Z,31.50
2019-05-29T09:30:56.178Z,31.60
2019-05-29T09:33:32.722Z,31.80
2019-05-29T09:36:09.455Z,31.80
2019-05-29T09:38:46.366Z,32.00
2019-05-29T09:41:23.610Z,32.10
2019-05-29T09:44:00.423Z,32.20
2019-05-29T09:46:36.890Z,32.20
2019-05-29T09:49:13.553Z,32.20
2019-05-29T09:51:49.783Z,32.20
2019-05-29T09:54:26.277Z,32.10
2019-05-29T09:57:03.388Z,32.10
2019-05-29T09:59:39.338Z,32.10
2019-05-29T10:02:16.034Z,31.90
2019-05-29T10:04:54.298Z,31.70
2019-05-29T10:07:30.178Z,31.60
2019-05-29T10:10:07.243Z,31.80
2019-05-29T10:12:43.716Z,31.60
2019-05-29T10:15:21.634Z,31.40
2019-05-29T10:17:58.497Z,31.40
2019-05-29T10:20:35.161Z,31.40
2019-05-29T10:23:11.696Z,31.50
2019-05-29T10:25:48.650Z,31.50
2019-05-29T10:28:25.368Z,31.30
2019-05-29T10:31:03.669Z,31.40
2019-05-29T10:33:39.602Z,31.40
2019-05-29T10:36:16.170Z,31.30
2019-05-29T10:38:52.758Z,31.30
2019-05-29T10:41:29.142Z,31.20
2019-05-29T10:44:05.970Z,31.20
2019-05-29T10:46:44.903Z,31.30
2019-05-29T10:49:19.579Z,31.20
2019-05-29T10:52:11.806Z,31.00
2019-05-29T10:54:34.109Z,30.90
2019-05-29T10:57:10.247Z,30.90
2019-05-29T10:59:46.616Z,30.90
2019-05-29T11:02:23.349Z,30.70
2019-05-29T11:05:00.169Z,30.60
2019-05-29T11:07:36.979Z,30.70
2019-05-29T11:10:13.922Z,30.60
2019-05-29T11:12:50.874Z,30.50
2019-05-29T11:15:27.017Z,30.40
2019-05-29T11:18:03.674Z,30.40
2019-05-29T11:20:40.527Z,30.40
2019-05-29T11:23:17.632Z,30.20
2019-05-29T11:25:54.363Z,30.30
2019-05-29T11:28:31.985Z,30.30
2019-05-29T11:31:08.308Z,30.10
2019-05-29T11:33:44.961Z,30.00
2019-05-29T11:36:21.887Z,29.90
2019-05-29T11:39:03.304Z,29.70
2019-05-29T11:41:36.429Z,29.60
2019-05-29T11:44:13.078Z,29.50
2019-05-29T11:46:50.171Z,29.40
2019-05-29T11:49:26.756Z,29.30
2019-05-29T11:52:22.883Z,29.30
2019-05-29T11:54:41.123Z,29.10
2019-05-29T11:57:17.558Z,29.10
2019-05-29T11:59:54.110Z,29.00
2019-05-29T12:02:30.391Z,29.00
2019-05-29T12:05:07.020Z,29.00
2019-05-29T12:07:45.136Z,28.70
2019-05-29T12:10:22.209Z,28.70
2019-05-29T12:12:59.641Z,28.80
2019-05-29T12:15:36.118Z,28.90
2019-05-29T12:18:23.558Z,29.00
2019-05-29T12:20:50.086Z,29.00
2019-05-29T12:23:27.342Z,28.90
2019-05-29T12:26:19.652Z,28.30
2019-05-29T12:28:41.940Z,27.90
2019-05-29T12:31:18.620Z,27.70
2019-05-29T12:33:55.080Z,27.60
2019-05-29T12:36:31.743Z,26.90
2019-05-29T12:39:09.254Z,26.90
2019-05-29T12:41:46.101Z,27.10
2019-05-29T12:44:23.093Z,26.80
2019-05-29T12:46:59.842Z,26.80
2019-05-29T12:49:35.910Z,26.80
2019-05-29T12:52:12.333Z,27.00
2019-05-29T12:54:48.648Z,27.40
2019-05-29T12:57:25.226Z,27.50
2019-05-29T13:00:03.888Z,27.50
2019-05-29T13:02:39.231Z,27.50
2019-05-29T13:05:20.038Z,27.50
2019-05-29T13:07:54.701Z,27.50
2019-05-29T13:10:31.476Z,27.40
2019-05-29T13:13:11.070Z,27.40
2019-05-29T13:15:46.466Z,27.30
2019-05-29T13:18:22.872Z,27.40
2019-05-29T13:20:59.281Z,27.40
2019-05-29T13:23:45.276Z,27.30
2019-05-29T13:26:14.726Z,27.10
2019-05-29T13:28:50.844Z,27.20
2019-05-29T13:31:27.913Z,27.10
2019-05-29T13:34:04.602Z,27.00
2019-05-29T13:36:41.008Z,26.90
2019-05-29T13:39:17.839Z,26.90
2019-05-29T13:41:56.142Z,26.90
2019-05-29T13:44:32.739Z,26.90
2019-05-29T13:47:09.316Z,26.80
2019-05-29T13:49:46.180Z,26.80
2019-05-29T13:52:22.969Z,26.80
2019-05-29T13:54:59.463Z,26.80
2019-05-29T13:57:39.514Z,26.80
2019-05-29T14:00:34.203Z,26.80
2019-05-29T14:02:54.334Z,26.80
2019-05-29T14:05:31.105Z,26.80
2019-05-29T14:08:08.971Z,26.70
2019-05-29T14:10:45.445Z,26.70
2019-05-29T14:13:21.308Z,26.20
2019-05-29T14:15:57.700Z,25.80
2019-05-29T14:18:34.188Z,25.80
2019-05-29T14:21:10.650Z,26.00
2019-05-29T14:23:47.231Z,25.90
2019-05-29T14:26:24.228Z,25.90
2019-05-29T14:29:01.423Z,25.90
2019-05-29T14:31:37.751Z,25.80
2019-05-29T14:34:14.354Z,25.80
2019-05-29T14:36:51.038Z,26.00
2019-05-29T14:39:27.742Z,26.20
2019-05-29T14:42:04.340Z,26.40
2019-05-29T14:44:41.458Z,26.00
2019-05-29T14:47:18.018Z,25.60
2019-05-29T14:49:54.765Z,25.70
2019-05-29T14:52:31.721Z,25.70
2019-05-29T14:55:09.343Z,25.70
2019-05-29T14:57:46.657Z,25.50
2019-05-29T15:00:25.745Z,25.70
2019-05-29T15:03:01.246Z,25.90
2019-05-29T15:05:37.956Z,26.00
2019-05-29T15:08:14.590Z,25.90
2019-05-29T15:10:51.160Z,25.70
2019-05-29T15:13:27.792Z,25.90
2019-05-29T15:16:04.649Z,26.10
2019-05-29T15:18:41.544Z,26.10
2019-05-29T15:21:18.393Z,26.10
2019-05-29T15:23:54.759Z,25.70
2019-05-29T15:26:31.488Z,25.70
2019-05-29T15:29:08.074Z,26.00
2019-05-29T15:31:44.547Z,26.10
2019-05-29T15:34:21.160Z,26.20
2019-05-29T15:36:57.356Z,26.20
2019-05-29T15:39:33.871Z,26.10
2019-05-29T15:42:10.951Z,26.10
2019-05-29T15:44:47.243Z,25.80
2019-05-29T15:47:24.091Z,25.70
2019-05-29T15:50:00.845Z,25.60
2019-05-29T15:52:37.594Z,25.80
2019-05-29T15:55:31.859Z,26.00
2019-05-29T15:57:52.617Z,25.50
2019-05-29T16:00:29.456Z,25.60
2019-05-29T16:03:07.436Z,25.60
2019-05-29T16:05:43.926Z,25.50
2019-05-29T16:08:20.648Z,25.50
2019-05-29T16:10:57.369Z,25.70
2019-05-29T16:13:34.442Z,25.80
2019-05-29T16:16:11.261Z,25.80
2019-05-29T16:18:47.716Z,25.90
2019-05-29T16:21:24.364Z,25.70
2019-05-29T16:24:01.095Z,25.50
2019-05-29T16:26:38.214Z,25.60
2019-05-29T16:29:17.320Z,25.60
2019-05-29T16:31:52.900Z,25.50
2019-05-29T16:34:29.468Z,25.50
2019-05-29T16:37:06.409Z,25.40
2019-05-29T16:39:43.144Z,25.30
2019-05-29T16:42:22.033Z,25.40
2019-05-29T16:44:59.742Z,25.60
2019-05-29T16:47:36.350Z,25.60
2019-05-29T16:50:14.738Z,25.50
2019-05-29T16:52:50.712Z,25.50
2019-05-29T16:55:27.238Z,25.50
2019-05-29T16:58:03.712Z,25.60
2019-05-29T17:00:40.128Z,25.60
2019-05-29T17:03:17.680Z,25.70
2019-05-29T17:05:54.378Z,25.60
2019-05-29T17:08:30.818Z,25.60
2019-05-29T17:11:07.185Z,25.40
2019-05-29T17:13:44.190Z,25.30
2019-05-29T17:16:20.739Z,25.30
2019-05-29T17:18:57.953Z,25.30
2019-05-29T17:21:34.437Z,25.50
2019-05-29T17:24:10.770Z,25.40
2019-05-29T17:26:47.370Z,25.50
2019-05-29T17:29:25.071Z,25.50
2019-05-29T17:32:01.800Z,25.50
2019-05-29T17:34:46.975Z,25.40
2019-05-29T17:37:23.661Z,25.40
2019-05-29T17:40:00.045Z,25.30
2019-05-29T17:42:36.680Z,25.30
2019-05-29T17:45:14.087Z,25.40
2019-05-29T17:47:51.397Z,25.40
2019-05-29T17:50:29.767Z,25.40
2019-05-29T17:53:06.342Z,25.40
2019-05-29T17:55:42.638Z,25.50
2019-05-29T17:58:21.155Z,25.40
2019-05-29T18:00:58.091Z,25.00
2019-05-29T18:03:34.631Z,24.90
2019-05-29T18:06:11.351Z,24.90
2019-05-29T18:08:47.953Z,25.00
2019-05-29T18:11:25.256Z,25.10
2019-05-29T18:14:05.026Z,25.20
2019-05-29T18:16:40.306Z,25.00
2019-05-29T18:19:17.565Z,25.10
2019-05-29T18:21:54.228Z,25.20
2019-05-29T18:24:30.824Z,25.00
2019-05-29T18:27:08.709Z,25.00
2019-05-29T18:29:44.776Z,25.00
2019-05-29T18:32:22.418Z,25.10
2019-05-29T18:34:59.310Z,25.00
2019-05-29T18:37:36.422Z,24.90
2019-05-29T18:40:13.587Z,24.90
2019-05-29T18:42:50.294Z,25.00
2019-05-29T18:45:27.827Z,24.90
2019-05-29T18:48:04.604Z,24.90
2019-05-29T18:50:44.264Z,25.00
2019-05-29T18:53:20.640Z,25.10
2019-05-29T18:55:57.396Z,25.00
2019-05-29T18:58:34.317Z,25.10
2019-05-29T19:01:12.097Z,25.10
2019-05-29T19:03:48.810Z,25.10
2019-05-29T19:06:25.578Z,25.00
2019-05-29T19:09:02.121Z,25.00
2019-05-29T19:11:38.679Z,24.90
2019-05-29T19:14:15.239Z,24.90
2019-05-29T19:16:51.765Z,25.00
2019-05-29T19:19:28.404Z,25.00
2019-05-29T19:22:05.188Z,24.90
2019-05-29T19:24:41.635Z,25.00
2019-05-29T19:27:32.093Z,25.00
2019-05-29T19:29:56.384Z,25.10
2019-05-29T19:32:33.930Z,25.10
2019-05-29T19:35:10.896Z,25.00
2019-05-29T19:37:47.734Z,25.10
2019-05-29T19:40:25.922Z,25.10
2019-05-29T19:43:02.223Z,25.10
2019-05-29T19:45:38.743Z,25.20
2019-05-29T19:48:15.000Z,25.20
2019-05-29T19:50:51.952Z,25.00
2019-05-29T19:53:29.485Z,25.00
2019-05-29T19:56:07.314Z,25.10
2019-05-29T19:58:43.854Z,25.10
2019-05-29T20:01:30.767Z,25.10
2019-05-29T20:03:59.287Z,25.00
2019-05-29T20:06:37.144Z,25.00
2019-05-29T20:09:14.115Z,24.90
2019-05-29T20:11:50.536Z,24.90
2019-05-29T20:14:27.592Z,24.90
2019-05-29T20:17:04.978Z,25.00
2019-05-29T20:19:41.867Z,25.10
2019-05-29T20:22:18.112Z,25.10
2019-05-29T20:24:54.633Z,25.20
2019-05-29T20:27:32.091Z,25.10
2019-05-29T20:30:10.199Z,25.20
2019-05-29T20:32:47.076Z,25.30
2019-05-29T20:35:23.663Z,25.30
2019-05-29T20:37:59.979Z,25.30
2019-05-29T20:40:37.327Z,25.30
2019-05-29T20:43:14.031Z,25.30
2019-05-29T20:45:50.525Z,25.40
2019-05-29T20:48:27.122Z,25.30
2019-05-29T20:51:03.869Z,25.20
2019-05-29T20:53:40.723Z,25.10
2019-05-29T20:56:18.764Z,25.20
2019-05-29T20:58:54.957Z,25.10
2019-05-29T21:01:32.170Z,25.10
2019-05-29T21:04:08.966Z,25.10
2019-05-29T21:06:45.475Z,25.20
2019-05-29T21:09:22.124Z,25.20
2019-05-29T21:11:58.563Z,25.20
2019-05-29T21:14:35.502Z,25.10
2019-05-29T21:17:11.898Z,25.20
2019-05-29T21:19:48.407Z,25.20
2019-05-29T21:22:24.864Z,25.30
2019-05-29T21:25:08.118Z,25.20
2019-05-29T21:27:43.762Z,25.00
2019-05-29T21:30:18.482Z,24.90
2019-05-29T21:32:54.998Z,25.10
2019-05-29T21:35:31.779Z,25.10
2019-05-29T21:38:08.077Z,25.00
2019-05-29T21:40:44.939Z,25.10
2019-05-29T21:43:21.499Z,25.10
2019-05-29T21:45:57.744Z,25.20
2019-05-29T21:48:34.304Z,25.30
2019-05-29T21:51:11.316Z,25.30
2019-05-29T21:53:47.580Z,25.30
2019-05-29T21:56:24.765Z,25.40
2019-05-29T21:59:04.185Z,25.40
2019-05-29T22:01:39.892Z,25.40
2019-05-29T22:04:17.397Z,25.30
2019-05-29T22:06:54.137Z,25.20
2019-05-29T22:09:30.297Z,25.10
2019-05-29T22:12:07.334Z,25.10
2019-05-29T22:14:43.885Z,25.10
2019-05-29T22:17:20.324Z,25.10
2019-05-29T22:19:58.971Z,25.10
2019-05-29T22:22:35.463Z,25.10
2019-05-29T22:25:12.130Z,25.20
2019-05-29T22:27:48.571Z,25.20
2019-05-29T22:30:25.393Z,25.30
2019-05-29T22:33:03.446Z,25.40
2019-05-29T22:35:40.287Z,25.40
2019-05-29T22:38:16.265Z,25.40
2019-05-29T22:40:53.791Z,25.30
2019-05-29T22:43:30.576Z,25.20
2019-05-29T22:46:06.833Z,25.30
2019-05-29T22:48:44.286Z,25.40
2019-05-29T22:51:20.271Z,25.40
2019-05-29T22:53:57.814Z,25.30
2019-05-29T22:56:34.460Z,25.40
2019-05-29T22:59:11.120Z,25.40
2019-05-29T23:01:47.639Z,25.50
2019-05-29T23:04:24.203Z,25.50
2019-05-29T23:07:00.910Z,25.60
2019-05-29T23:09:40.547Z,25.70
2019-05-29T23:12:17.448Z,25.70
2019-05-29T23:14:54.480Z,25.60
2019-05-29T23:17:30.899Z,25.60
2019-05-29T23:20:07.777Z,25.60
2019-05-29T23:22:44.399Z,25.60
2019-05-29T23:25:20.563Z,25.60
2019-05-29T23:27:57.141Z,25.60
2019-05-29T23:30:33.933Z,25.60
2019-05-29T23:33:19.298Z,25.70
2019-05-29T23:35:56.925Z,25.60
2019-05-29T23:38:33.419Z,25.80
2019-05-29T23:41:11.539Z,25.80
2019-05-29T23:43:48.194Z,25.70
2019-05-29T23:46:25.176Z,25.80
2019-05-29T23:49:03.926Z,25.80
2019-05-29T23:51:40.741Z,25.80
2019-05-29T23:54:17.235Z,25.90
2019-05-29T23:56:53.877Z,25.80
2019-05-29T23:59:30.020Z,25.90
